createdAt,value
2018-06-22T00:00:03.339Z,41.40
2018-06-22T00:02:35.128Z,47.90
2018-06-22T00:05:06.976Z,44.10
2018-06-22T00:07:38.536Z,43.07
2018-06-22T00:10:10.396Z,46.83
2018-06-22T00:12:42.241Z,53.67
2018-06-22T00:15:14.063Z,49.53
2018-06-22T00:17:45.655Z,55.50
2018-06-22T00:20:17.436Z,47.77
2018-06-22T00:22:49.143Z,49.60
2018-06-22T00:25:21.446Z,53.90
2018-06-22T00:27:53.206Z,44.77
2018-06-22T00:30:24.155Z,50.53
2018-06-22T00:32:55.807Z,48.37
2018-06-22T00:35:27.823Z,45.17
2018-06-22T00:37:59.522Z,50.50
2018-06-22T00:40:31.127Z,55.90
2018-06-22T00:43:02.735Z,48.60
2018-06-22T00:45:34.900Z,49.53
2018-06-22T00:48:05.582Z,44.83
2018-06-22T00:50:36.671Z,60.13
2018-06-22T00:53:16.772Z,46.83
2018-06-22T00:55:48.499Z,48.30
2018-06-22T00:58:21.273Z,51.13
2018-06-22T01:00:53.181Z,51.20
2018-06-22T01:03:24.579Z,48.97
2018-06-22T01:05:56.543Z,50.47
2018-06-22T01:08:28.169Z,52.50
2018-06-22T01:11:00.342Z,50.73
2018-06-22T01:13:32.051Z,48.53
2018-06-22T01:16:03.610Z,46.43
2018-06-22T01:18:35.258Z,52.07
2018-06-22T01:21:06.238Z,49.17
2018-06-22T01:23:37.866Z,48.70
2018-06-22T01:26:09.803Z,47.13
2018-06-22T01:28:40.700Z,48.00
2018-06-22T01:31:12.982Z,52.90
2018-06-22T01:33:44.574Z,50.20
2018-06-22T01:36:16.133Z,50.23
2018-06-22T01:38:47.879Z,49.27
2018-06-22T01:41:19.859Z,64.90
2018-06-22T01:43:51.226Z,50.70
2018-06-22T01:46:23.361Z,49.97
2018-06-22T01:48:54.835Z,52.70
2018-06-22T01:51:26.635Z,53.10
2018-06-22T01:53:58.207Z,52.77
2018-06-22T01:56:30.049Z,55.00
2018-06-22T01:59:01.923Z,55.93
2018-06-22T02:01:33.640Z,55.20
2018-06-22T02:04:05.429Z,61.30
2018-06-22T02:06:37.937Z,71.27
2018-06-22T02:09:12.822Z,54.70
2018-06-22T02:11:45.295Z,56.73
2018-06-22T02:14:16.834Z,61.00
2018-06-22T02:16:48.542Z,55.07
2018-06-22T02:19:20.100Z,59.50
2018-06-22T02:21:52.324Z,58.80
2018-06-22T02:24:23.833Z,59.00
2018-06-22T02:26:55.842Z,57.30
2018-06-22T02:29:27.548Z,59.80
2018-06-22T02:31:59.295Z,71.47
2018-06-22T02:34:31.398Z,65.73
2018-06-22T02:37:03.881Z,68.90
2018-06-22T02:39:35.459Z,67.20
2018-06-22T02:42:08.316Z,63.03
2018-06-22T02:44:40.305Z,67.87
2018-06-22T02:47:12.037Z,64.23
2018-06-22T02:49:43.244Z,58.57
2018-06-22T02:52:15.249Z,63.13
2018-06-22T02:54:46.879Z,70.23
2018-06-22T02:57:18.874Z,57.70
2018-06-22T02:59:52.274Z,52.63
2018-06-22T03:02:24.131Z,68.70
2018-06-22T03:04:54.761Z,76.30
2018-06-22T03:07:27.047Z,51.13
2018-06-22T03:09:58.797Z,65.67
2018-06-22T03:12:30.529Z,64.53
2018-06-22T03:15:02.293Z,61.13
2018-06-22T03:17:34.630Z,65.97
2018-06-22T03:20:06.150Z,53.50
2018-06-22T03:22:37.879Z,54.70
2018-06-22T03:25:09.665Z,49.03
2018-06-22T03:27:40.907Z,56.47
2018-06-22T03:30:12.706Z,58.13
2018-06-22T03:32:44.819Z,44.00
2018-06-22T03:35:16.198Z,55.77
2018-06-22T03:37:47.881Z,51.03
2018-06-22T03:40:18.754Z,46.07
2018-06-22T03:42:50.237Z,37.63
2018-06-22T03:45:21.934Z,42.20
2018-06-22T03:47:53.649Z,38.67
2018-06-22T03:50:25.791Z,29.77
2018-06-22T03:52:57.627Z,35.10
2018-06-22T03:55:29.251Z,36.47
2018-06-22T03:58:00.265Z,45.13
2018-06-22T04:00:33.342Z,39.17
2018-06-22T04:03:06.109Z,34.97
2018-06-22T04:05:38.839Z,34.23
2018-06-22T04:08:10.164Z,28.30
2018-06-22T04:10:41.862Z,37.07
2018-06-22T04:13:14.049Z,37.90
2018-06-22T04:15:45.902Z,37.47
2018-06-22T04:18:18.179Z,25.97
2018-06-22T04:20:50.221Z,39.90
2018-06-22T04:23:22.408Z,33.17
2018-06-22T04:25:54.322Z,33.33
2018-06-22T04:28:26.555Z,42.03
2018-06-22T04:30:58.712Z,34.90
2018-06-22T04:33:30.913Z,22.70
2018-06-22T04:36:02.790Z,35.80
2018-06-22T04:38:34.877Z,32.33
2018-06-22T04:41:06.004Z,29.97
2018-06-22T04:43:37.859Z,37.87
2018-06-22T04:46:09.557Z,29.80
2018-06-22T04:48:41.800Z,32.93
2018-06-22T04:51:16.716Z,30.40
2018-06-22T04:53:48.718Z,32.10
2018-06-22T04:56:22.946Z,28.97
2018-06-22T04:58:53.899Z,28.30
2018-06-22T05:01:28.071Z,28.33
2018-06-22T05:03:59.568Z,28.73
2018-06-22T05:06:31.543Z,25.60
2018-06-22T05:09:05.870Z,27.93
2018-06-22T05:11:37.497Z,28.13
2018-06-22T05:14:09.345Z,25.73
2018-06-22T05:16:41.228Z,25.23
2018-06-22T05:19:12.927Z,28.73
2018-06-22T05:21:44.318Z,23.57
2018-06-22T05:24:16.166Z,23.30
2018-06-22T05:26:47.962Z,27.93
2018-06-22T05:29:19.690Z,20.55
2018-06-22T05:31:51.336Z,27.50
2018-06-22T05:34:23.256Z,28.10
2018-06-22T05:36:54.906Z,18.47
2018-06-22T05:39:26.968Z,26.83
2018-06-22T05:41:58.371Z,16.93
2018-06-22T05:44:30.437Z,20.23
2018-06-22T05:47:02.170Z,18.17
2018-06-22T05:49:34.360Z,19.40
2018-06-22T05:52:06.127Z,24.47
2018-06-22T05:54:37.957Z,16.87
2018-06-22T05:57:09.469Z,16.00
2018-06-22T05:59:41.651Z,16.07
2018-06-22T06:02:14.525Z,16.17
2018-06-22T06:04:46.441Z,20.70
2018-06-22T06:07:17.971Z,18.92
2018-06-22T06:09:49.928Z,24.60
2018-06-22T06:12:21.685Z,25.05
2018-06-22T06:14:53.985Z,14.33
2018-06-22T06:17:25.847Z,18.40
2018-06-22T06:19:58.116Z,19.43
2018-06-22T06:22:29.843Z,24.63
2018-06-22T06:25:00.972Z,19.50
2018-06-22T06:27:32.707Z,16.87
2018-06-22T06:30:03.766Z,15.63
2018-06-22T06:32:35.425Z,19.87
2018-06-22T06:35:07.334Z,20.05
2018-06-22T06:37:39.265Z,17.48
2018-06-22T06:40:11.565Z,15.68
2018-06-22T06:42:43.460Z,20.08
2018-06-22T06:45:14.521Z,29.15
2018-06-22T06:47:46.203Z,13.58
2018-06-22T06:50:17.503Z,12.18
2018-06-22T06:52:49.193Z,15.30
2018-06-22T06:55:21.179Z,19.67
2018-06-22T06:57:52.944Z,15.58
2018-06-22T07:00:25.590Z,15.63
2018-06-22T07:02:58.474Z,17.23
2018-06-22T07:05:30.515Z,15.45
2018-06-22T07:08:02.127Z,20.52
2018-06-22T07:10:38.603Z,19.45
2018-06-22T07:13:10.266Z,18.10
2018-06-22T07:15:42.790Z,20.52
2018-06-22T07:18:13.496Z,13.65
2018-06-22T07:20:45.587Z,14.50
2018-06-22T07:23:17.149Z,18.75
2018-06-22T07:25:48.982Z,18.53
2018-06-22T07:28:22.030Z,18.00
2018-06-22T07:30:53.129Z,17.27
2018-06-22T07:33:24.856Z,13.00
2018-06-22T07:35:56.424Z,16.73
2018-06-22T07:38:28.159Z,12.47
2018-06-22T07:40:59.821Z,20.27
2018-06-22T07:43:31.475Z,19.47
2018-06-22T07:46:03.203Z,14.93
2018-06-22T07:48:34.882Z,19.30
2018-06-22T07:51:06.787Z,21.37
2018-06-22T07:53:38.269Z,18.87
2018-06-22T07:56:10.074Z,11.73
2018-06-22T07:58:41.729Z,16.27
2018-06-22T08:01:13.675Z,19.90
2018-06-22T08:03:46.310Z,23.83
2018-06-22T08:06:17.993Z,22.83
2018-06-22T08:08:49.785Z,20.67
2018-06-22T08:11:21.569Z,20.37
2018-06-22T08:13:53.675Z,19.83
2018-06-22T08:16:24.933Z,15.43
2018-06-22T08:18:55.624Z,27.43
2018-06-22T08:21:27.470Z,26.00
2018-06-22T08:23:59.015Z,25.50
2018-06-22T08:26:30.669Z,25.80
2018-06-22T08:29:02.343Z,24.33
2018-06-22T08:31:34.456Z,21.97
2018-06-22T08:34:05.296Z,19.60
2018-06-22T08:36:36.334Z,17.33
2018-06-22T08:39:10.569Z,14.37
2018-06-22T08:41:43.070Z,17.30
2018-06-22T08:44:14.899Z,18.67
2018-06-22T08:46:45.786Z,19.00
2018-06-22T08:49:17.767Z,22.87
2018-06-22T08:51:49.475Z,17.27
2018-06-22T08:54:20.354Z,26.33
2018-06-22T08:56:52.476Z,17.53
2018-06-22T08:59:23.920Z,25.73
2018-06-22T09:01:55.855Z,19.87
2018-06-22T09:04:28.963Z,15.33
2018-06-22T09:07:00.894Z,18.97
2018-06-22T09:09:32.532Z,21.00
2018-06-22T09:12:04.366Z,21.50
2018-06-22T09:14:35.143Z,22.00
2018-06-22T09:17:07.072Z,18.47
2018-06-22T09:19:38.720Z,17.83
2018-06-22T09:22:10.722Z,16.23
2018-06-22T09:24:42.384Z,19.00
2018-06-22T09:27:14.098Z,20.87
2018-06-22T09:29:45.755Z,26.57
2018-06-22T09:32:17.646Z,33.47
2018-06-22T09:34:49.311Z,24.60
2018-06-22T09:37:21.036Z,22.70
2018-06-22T09:39:52.845Z,15.73
2018-06-22T09:42:24.815Z,21.70
2018-06-22T09:44:56.652Z,20.43
2018-06-22T09:47:28.336Z,17.50
2018-06-22T09:49:59.990Z,19.20
2018-06-22T09:52:32.558Z,20.30
2018-06-22T09:55:04.061Z,32.60
2018-06-22T09:57:36.139Z,26.83
2018-06-22T10:00:07.718Z,14.63
2018-06-22T10:02:39.341Z,27.17
2018-06-22T10:05:12.050Z,31.10
2018-06-22T10:07:44.191Z,32.50
2018-06-22T10:10:15.560Z,19.87
2018-06-22T10:12:47.125Z,22.57
2018-06-22T10:15:18.873Z,21.53
2018-06-22T10:17:54.411Z,22.90
2018-06-22T10:20:26.058Z,26.07
2018-06-22T10:22:58.215Z,21.50
2018-06-22T10:25:29.981Z,28.57
2018-06-22T10:28:01.675Z,22.77
2018-06-22T10:30:33.388Z,26.83
2018-06-22T10:33:05.366Z,22.93
2018-06-22T10:35:36.997Z,29.77
2018-06-22T10:38:08.849Z,26.90
2018-06-22T10:40:40.453Z,24.43
2018-06-22T10:43:12.460Z,21.10
2018-06-22T10:45:44.134Z,22.90
2018-06-22T10:48:16.032Z,16.23
2018-06-22T10:50:47.694Z,28.30
2018-06-22T10:53:19.448Z,34.40
2018-06-22T10:55:50.451Z,21.37
2018-06-22T10:58:22.272Z,33.40
2018-06-22T11:00:53.738Z,19.17
2018-06-22T11:03:25.768Z,28.47
2018-06-22T11:05:57.827Z,15.87
2018-06-22T11:08:29.787Z,24.67
2018-06-22T11:11:01.471Z,26.00
2018-06-22T11:13:33.580Z,16.80
2018-06-22T11:16:05.013Z,32.33
2018-06-22T11:18:36.613Z,20.43
2018-06-22T11:21:08.263Z,20.20
2018-06-22T11:23:40.493Z,23.93
2018-06-22T11:26:12.083Z,30.47
2018-06-22T11:28:43.930Z,31.50
2018-06-22T11:31:15.857Z,26.80
2018-06-22T11:33:47.950Z,25.80
2018-06-22T11:36:19.856Z,24.83
2018-06-22T11:38:51.939Z,21.00
2018-06-22T11:41:23.762Z,27.57
2018-06-22T11:43:55.609Z,20.33
2018-06-22T11:46:27.230Z,19.53
2018-06-22T11:48:58.956Z,22.90
2018-06-22T11:51:30.749Z,23.17
2018-06-22T11:54:02.792Z,26.70
2018-06-22T11:56:34.715Z,26.03
2018-06-22T11:59:06.811Z,29.37
2018-06-22T12:01:37.701Z,19.73
2018-06-22T12:04:09.762Z,30.73
2018-06-22T12:06:42.306Z,29.43
2018-06-22T12:09:14.349Z,30.53
2018-06-22T12:11:46.126Z,22.93
2018-06-22T12:14:18.267Z,32.00
2018-06-22T12:16:50.149Z,18.33
2018-06-22T12:19:22.834Z,23.13
2018-06-22T12:21:54.461Z,24.77
2018-06-22T12:24:26.423Z,34.07
2018-06-22T12:26:57.850Z,32.27
2018-06-22T12:29:29.557Z,25.03
2018-06-22T12:32:01.448Z,23.10
2018-06-22T12:34:33.586Z,30.30
2018-06-22T12:37:05.293Z,21.73
2018-06-22T12:39:37.144Z,20.50
2018-06-22T12:42:08.101Z,23.80
2018-06-22T12:44:40.214Z,26.20
2018-06-22T12:47:11.765Z,26.40
2018-06-22T12:49:43.603Z,26.63
2018-06-22T12:52:15.307Z,32.27
2018-06-22T12:54:47.233Z,30.30
2018-06-22T12:57:19.076Z,17.23
2018-06-22T12:59:50.678Z,25.40
2018-06-22T13:02:22.231Z,30.40
2018-06-22T13:04:53.114Z,26.70
2018-06-22T13:07:26.285Z,29.43
2018-06-22T13:09:58.116Z,30.73
2018-06-22T13:12:29.004Z,30.43
2018-06-22T13:15:01.061Z,34.67
2018-06-22T13:17:32.670Z,16.27
2018-06-22T13:20:04.525Z,28.07
2018-06-22T13:22:36.504Z,31.17
2018-06-22T13:25:08.588Z,25.83
2018-06-22T13:27:39.889Z,22.90
2018-06-22T13:30:11.908Z,25.53
2018-06-22T13:32:43.559Z,34.27
2018-06-22T13:35:15.137Z,29.37
2018-06-22T13:37:46.938Z,19.73
2018-06-22T13:40:19.087Z,29.53
2018-06-22T13:42:50.824Z,26.00
2018-06-22T13:45:22.455Z,27.50
2018-06-22T13:47:53.165Z,25.90
2018-06-22T13:50:25.205Z,33.47
2018-06-22T13:52:56.847Z,33.13
2018-06-22T13:55:28.978Z,22.10
2018-06-22T13:58:00.543Z,26.43
2018-06-22T14:00:32.690Z,48.17
2018-06-22T14:03:03.441Z,30.47
2018-06-22T14:05:38.948Z,30.30
2018-06-22T14:08:11.793Z,23.20
2018-06-22T14:10:43.861Z,31.93
2018-06-22T14:13:15.775Z,31.33
2018-06-22T14:15:47.462Z,27.57
2018-06-22T14:18:19.715Z,26.20
2018-06-22T14:20:51.175Z,27.20
2018-06-22T14:23:23.057Z,30.07
2018-06-22T14:25:54.971Z,33.37
2018-06-22T14:28:26.571Z,32.37
2018-06-22T14:30:58.632Z,27.80
2018-06-22T14:33:30.912Z,24.67
2018-06-22T14:36:02.365Z,31.70
2018-06-22T14:38:34.039Z,31.37
2018-06-22T14:41:06.065Z,29.80
2018-06-22T14:43:37.797Z,35.80
2018-06-22T14:46:10.093Z,32.60
2018-06-22T14:48:41.824Z,34.63
2018-06-22T14:51:14.225Z,39.37
2018-06-22T14:53:50.727Z,36.90
2018-06-22T14:56:27.676Z,36.33
2018-06-22T15:00:07.429Z,39.53
2018-06-22T15:02:44.663Z,44.50
2018-06-22T15:05:21.417Z,36.63
2018-06-22T15:07:57.438Z,33.17
2018-06-22T15:10:29.978Z,46.43
2018-06-22T15:13:01.634Z,35.30
2018-06-22T15:15:33.299Z,50.57
2018-06-22T15:18:05.376Z,35.80
2018-06-22T15:20:37.243Z,37.40
2018-06-22T15:23:08.970Z,61.37
2018-06-22T15:25:40.597Z,40.47
2018-06-22T15:28:11.508Z,45.23
2018-06-22T15:30:43.100Z,50.10
2018-06-22T15:33:19.879Z,44.33
2018-06-22T15:35:56.336Z,40.57
2018-06-22T15:38:33.070Z,42.17
2018-06-22T15:41:09.521Z,49.90
2018-06-22T15:44:44.725Z,49.13
2018-06-22T15:47:21.480Z,45.93
2018-06-22T15:49:58.136Z,51.63
2018-06-22T15:52:34.530Z,47.77
2018-06-22T15:55:09.287Z,49.03
2018-06-22T15:57:40.260Z,46.20
2018-06-22T16:00:13.656Z,45.23
2018-06-22T16:02:50.108Z,45.97
2018-06-22T16:05:22.350Z,51.57
2018-06-22T16:07:54.370Z,62.57
2018-06-22T16:10:26.142Z,48.30
2018-06-22T16:13:00.315Z,51.80
2018-06-22T16:15:37.558Z,51.80
2018-06-22T16:18:13.997Z,43.93
2018-06-22T16:20:50.973Z,39.80
2018-06-22T16:23:27.367Z,47.27
2018-06-22T16:26:04.411Z,37.43
2018-06-22T16:28:36.145Z,44.07
2018-06-22T16:31:08.141Z,42.50
2018-06-22T16:33:44.271Z,42.37
2018-06-22T16:36:16.022Z,46.27
2018-06-22T16:38:47.597Z,44.80
2018-06-22T16:41:19.435Z,41.93
2018-06-22T16:43:51.511Z,38.87
2018-06-22T16:46:23.603Z,40.00
2018-06-22T16:48:55.483Z,51.63
2018-06-22T16:51:27.245Z,46.07
2018-06-22T16:53:58.826Z,39.37
2018-06-22T16:56:30.823Z,47.47
2018-06-22T16:59:03.066Z,39.63
2018-06-22T17:01:35.069Z,39.57
2018-06-22T17:04:05.734Z,33.77
2018-06-22T17:06:42.640Z,38.30
2018-06-22T17:09:19.194Z,46.27
2018-06-22T17:11:57.129Z,41.17
2018-06-22T17:14:32.499Z,29.03
2018-06-22T17:17:09.403Z,39.77
2018-06-22T17:19:41.507Z,42.10
2018-06-22T17:22:13.596Z,44.50
2018-06-22T17:24:45.540Z,51.27
2018-06-22T17:27:17.869Z,37.00
2018-06-22T17:29:49.781Z,34.97
2018-06-22T17:32:21.971Z,35.73
2018-06-22T17:34:54.083Z,36.17
2018-06-22T17:37:27.027Z,41.13
2018-06-22T17:39:58.781Z,37.50
2018-06-22T17:42:30.879Z,37.47
2018-06-22T17:45:02.931Z,35.23
2018-06-22T17:47:35.009Z,33.53
2018-06-22T17:50:11.673Z,30.57
2018-06-22T17:52:43.625Z,36.33
2018-06-22T17:55:15.367Z,34.77
2018-06-22T17:57:47.412Z,39.03
2018-06-22T18:00:23.950Z,37.27
2018-06-22T18:02:59.546Z,39.77
2018-06-22T18:05:35.995Z,29.73
2018-06-22T18:08:13.050Z,41.70
2018-06-22T18:10:49.770Z,40.67
2018-06-22T18:13:22.517Z,34.67
2018-06-22T18:15:54.415Z,32.00
2018-06-22T18:18:26.022Z,39.23
2018-06-22T18:20:57.975Z,41.63
2018-06-22T18:23:30.534Z,30.53
2018-06-22T18:26:02.242Z,37.73
2018-06-22T18:28:35.294Z,33.10
2018-06-22T18:31:07.111Z,30.83
2018-06-22T18:33:39.728Z,26.47
2018-06-22T18:36:11.327Z,40.63
2018-06-22T18:38:44.167Z,33.47
2018-06-22T18:41:16.148Z,33.07
2018-06-22T18:43:52.415Z,35.73
2018-06-22T18:46:24.261Z,27.60
2018-06-22T18:48:56.472Z,27.43
2018-06-22T18:51:28.471Z,33.33
2018-06-22T18:55:07.429Z,33.27
2018-06-22T18:57:44.201Z,32.33
2018-06-22T19:00:20.549Z,27.47
2018-06-22T19:02:57.123Z,31.13
2018-06-22T19:05:29.104Z,24.77
2018-06-22T19:08:00.793Z,27.33
2018-06-22T19:10:32.803Z,35.30
2018-06-22T19:13:04.597Z,29.80
2018-06-22T19:15:37.706Z,29.57
2018-06-22T19:18:09.459Z,33.03
2018-06-22T19:20:41.912Z,29.23
2018-06-22T19:23:13.794Z,34.10
2018-06-22T19:25:44.898Z,24.33
2018-06-22T19:28:16.547Z,32.77
2018-06-22T19:30:49.388Z,34.07
2018-06-22T19:33:21.063Z,28.13
2018-06-22T19:35:52.199Z,27.80
2018-06-22T19:38:24.144Z,29.97
2018-06-22T19:40:56.219Z,24.33
2018-06-22T19:43:32.949Z,29.80
2018-06-22T19:46:09.771Z,28.13
2018-06-22T19:48:48.230Z,27.37
2018-06-22T19:51:25.058Z,26.70
2018-06-22T19:54:01.113Z,32.27
2018-06-22T19:56:33.069Z,29.87
2018-06-22T19:59:04.727Z,28.13
2018-06-22T20:01:36.755Z,30.87
2018-06-22T20:04:08.886Z,27.50
2018-06-22T20:06:41.149Z,32.03
2018-06-22T20:09:12.928Z,27.10
2018-06-22T20:11:45.068Z,31.20
2018-06-22T20:14:17.367Z,28.13
2018-06-22T20:16:50.348Z,29.73
2018-06-22T20:19:22.287Z,27.50
2018-06-22T20:21:54.259Z,35.33
2018-06-22T20:24:30.750Z,36.57
2018-06-22T20:27:02.715Z,35.47
2018-06-22T20:29:34.563Z,38.00
2018-06-22T20:32:09.863Z,38.07
2018-06-22T20:34:46.344Z,31.67
2018-06-22T20:37:22.924Z,51.50
2018-06-22T20:39:59.563Z,31.63
2018-06-22T20:42:36.490Z,34.00
2018-06-22T20:45:13.349Z,39.47
2018-06-22T20:47:50.094Z,40.73
2018-06-22T20:50:27.031Z,39.87
2018-06-22T20:52:59.387Z,28.13
2018-06-22T20:55:31.282Z,33.90
2018-06-22T20:58:02.202Z,38.63
2018-06-22T21:00:33.856Z,38.80
2018-06-22T21:03:05.767Z,40.03
2018-06-22T21:05:37.563Z,31.77
2018-06-22T21:08:09.575Z,39.00
2018-06-22T21:10:41.560Z,42.03
2018-06-22T21:13:13.922Z,36.70
2018-06-22T21:15:44.878Z,41.33
2018-06-22T21:18:18.599Z,38.00
2018-06-22T21:20:55.509Z,42.77
2018-06-22T21:23:27.725Z,41.13
2018-06-22T21:25:59.670Z,31.97
2018-06-22T21:28:36.383Z,41.83
2018-06-22T21:31:12.836Z,37.90
2018-06-22T21:33:49.325Z,44.93
2018-06-22T21:36:25.842Z,42.50
2018-06-22T21:39:00.978Z,44.40
2018-06-22T21:41:32.750Z,37.10
2018-06-22T21:44:05.311Z,45.80
2018-06-22T21:46:37.101Z,34.37
2018-06-22T21:49:09.203Z,39.27
2018-06-22T21:51:41.027Z,38.73
2018-06-22T21:54:13.091Z,37.10
2018-06-22T21:56:44.930Z,41.53
2018-06-22T21:59:17.672Z,34.70
2018-06-22T22:01:49.457Z,41.63
2018-06-22T22:04:20.600Z,31.93
2018-06-22T22:06:52.423Z,51.50
2018-06-22T22:09:24.399Z,40.90
2018-06-22T22:11:56.640Z,35.37
2018-06-22T22:14:28.655Z,33.93
2018-06-22T22:17:00.628Z,35.50
2018-06-22T22:19:34.867Z,37.97
2018-06-22T22:22:06.625Z,29.67
2018-06-22T22:24:38.803Z,32.03
2018-06-22T22:27:10.486Z,32.03
2018-06-22T22:29:41.681Z,37.07
2018-06-22T22:32:12.967Z,31.77
2018-06-22T22:34:45.691Z,33.27
2018-06-22T22:37:17.536Z,26.77
2018-06-22T22:39:49.731Z,32.70
2018-06-22T22:42:21.479Z,34.13
2018-06-22T22:44:53.570Z,34.07
2018-06-22T22:47:25.330Z,32.63
2018-06-22T22:49:57.258Z,26.57
2018-06-22T22:52:28.998Z,29.57
2018-06-22T22:55:00.805Z,34.07
2018-06-22T22:57:33.183Z,34.40
2018-06-22T23:00:05.510Z,27.20
2018-06-22T23:02:37.057Z,31.33
2018-06-22T23:05:08.189Z,42.70
2018-06-22T23:07:39.806Z,31.13
2018-06-22T23:10:12.006Z,27.90
2018-06-22T23:12:43.753Z,34.83
2018-06-22T23:15:15.839Z,37.77
2018-06-22T23:17:47.786Z,41.13
2018-06-22T23:20:21.077Z,30.90
2018-06-22T23:23:02.710Z,35.63
2018-06-22T23:25:34.669Z,31.50
2018-06-22T23:28:06.591Z,26.63
2018-06-22T23:30:38.515Z,35.17
2018-06-22T23:33:10.266Z,37.50
2018-06-22T23:35:42.057Z,27.70
2018-06-22T23:38:13.883Z,33.70
2018-06-22T23:40:45.909Z,36.30
2018-06-22T23:43:17.946Z,30.53
2018-06-22T23:45:49.938Z,30.30
2018-06-22T23:48:21.871Z,33.70
2018-06-22T23:50:53.817Z,35.30
2018-06-22T23:53:25.914Z,33.10
2018-06-22T23:55:58.169Z,34.80
2018-06-22T23:58:30.042Z,30.47
